sensor_id;sensor_type;location;lat;lon;timestamp;P1;durP1;ratioP1;P2;durP2;ratioP2
42364;SDS011;28498;54.400;18.566;2023-11-22T00:01:37;14.18;;;7.38;;
42364;SDS011;28498;54.400;18.566;2023-11-22T00:04:04;14.82;;;7.20;;
42364;SDS011;28498;54.400;18.566;2023-11-22T00:06:31;15.57;;;6.07;;
42364;SDS011;28498;54.400;18.566;2023-11-22T00:08:58;14.20;;;6.35;;
42364;SDS011;28498;54.400;18.566;2023-11-22T00:11:25;14.65;;;6.90;;
42364;SDS011;28498;54.400;18.566;2023-11-22T00:13:52;17.75;;;7.07;;
42364;SDS011;28498;54.400;18.566;2023-11-22T00:16:23;16.02;;;7.80;;
42364;SDS011;28498;54.400;18.566;2023-11-22T00:18:50;19.30;;;8.02;;
42364;SDS011;28498;54.400;18.566;2023-11-22T00:21:17;16.65;;;7.55;;
42364;SDS011;28498;54.400;18.566;2023-11-22T00:23:46;12.18;;;6.65;;
42364;SDS011;28498;54.400;18.566;2023-11-22T00:26:13;15.10;;;7.78;;
42364;SDS011;28498;54.400;18.566;2023-11-22T00:28:41;19.05;;;8.45;;
42364;SDS011;28498;54.400;18.566;2023-11-22T00:31:08;19.85;;;7.82;;
42364;SDS011;28498;54.400;18.566;2023-11-22T00:33:36;18.77;;;8.63;;
42364;SDS011;28498;54.400;18.566;2023-11-22T00:36:03;18.77;;;9.02;;
42364;SDS011;28498;54.400;18.566;2023-11-22T00:38:31;16.30;;;7.63;;
42364;SDS011;28498;54.400;18.566;2023-11-22T00:40:59;16.63;;;8.65;;
42364;SDS011;28498;54.400;18.566;2023-11-22T00:43:26;19.58;;;8.93;;
42364;SDS011;28498;54.400;18.566;2023-11-22T00:45:53;20.13;;;9.38;;
42364;SDS011;28498;54.400;18.566;2023-11-22T00:48:20;19.00;;;8.05;;
42364;SDS011;28498;54.400;18.566;2023-11-22T00:50:47;20.30;;;9.52;;
42364;SDS011;28498;54.400;18.566;2023-11-22T00:53:14;20.15;;;9.60;;
42364;SDS011;28498;54.400;18.566;2023-11-22T00:55:42;22.70;;;9.80;;
42364;SDS011;28498;54.400;18.566;2023-11-22T00:58:09;21.42;;;10.32;;
42364;SDS011;28498;54.400;18.566;2023-11-22T01:00:36;18.80;;;8.70;;
42364;SDS011;28498;54.400;18.566;2023-11-22T01:03:03;20.17;;;9.57;;
42364;SDS011;28498;54.400;18.566;2023-11-22T01:05:31;17.58;;;8.68;;
42364;SDS011;28498;54.400;18.566;2023-11-22T01:07:58;17.85;;;9.18;;
42364;SDS011;28498;54.400;18.566;2023-11-22T01:10:26;21.95;;;10.23;;
42364;SDS011;28498;54.400;18.566;2023-11-22T01:12:52;22.25;;;9.32;;
42364;SDS011;28498;54.400;18.566;2023-11-22T01:15:20;21.27;;;9.60;;
42364;SDS011;28498;54.400;18.566;2023-11-22T01:17:47;23.38;;;10.55;;
42364;SDS011;28498;54.400;18.566;2023-11-22T01:20:14;20.27;;;8.98;;
42364;SDS011;28498;54.400;18.566;2023-11-22T01:22:41;22.48;;;9.70;;
42364;SDS011;28498;54.400;18.566;2023-11-22T01:25:08;22.90;;;8.80;;
42364;SDS011;28498;54.400;18.566;2023-11-22T01:27:36;19.85;;;9.10;;
42364;SDS011;28498;54.400;18.566;2023-11-22T01:30:03;21.77;;;9.38;;
42364;SDS011;28498;54.400;18.566;2023-11-22T01:32:34;20.50;;;9.88;;
42364;SDS011;28498;54.400;18.566;2023-11-22T01:35:01;23.63;;;9.88;;
42364;SDS011;28498;54.400;18.566;2023-11-22T01:37:28;22.40;;;9.57;;
42364;SDS011;28498;54.400;18.566;2023-11-22T01:39:55;22.05;;;10.07;;
42364;SDS011;28498;54.400;18.566;2023-11-22T01:42:22;18.98;;;9.45;;
42364;SDS011;28498;54.400;18.566;2023-11-22T01:44:51;21.02;;;8.80;;
42364;SDS011;28498;54.400;18.566;2023-11-22T01:47:19;23.63;;;10.65;;
42364;SDS011;28498;54.400;18.566;2023-11-22T01:49:46;19.13;;;9.38;;
42364;SDS011;28498;54.400;18.566;2023-11-22T01:52:14;29.60;;;11.13;;
42364;SDS011;28498;54.400;18.566;2023-11-22T01:54:41;22.20;;;10.88;;
42364;SDS011;28498;54.400;18.566;2023-11-22T01:57:10;25.67;;;11.00;;
42364;SDS011;28498;54.400;18.566;2023-11-22T01:59:37;25.38;;;11.23;;
42364;SDS011;28498;54.400;18.566;2023-11-22T02:02:05;23.83;;;10.65;;
42364;SDS011;28498;54.400;18.566;2023-11-22T02:04:33;24.13;;;11.40;;
42364;SDS011;28498;54.400;18.566;2023-11-22T02:07:00;24.23;;;10.82;;
42364;SDS011;28498;54.400;18.566;2023-11-22T02:09:27;22.17;;;10.57;;
42364;SDS011;28498;54.400;18.566;2023-11-22T02:11:54;24.90;;;11.85;;
42364;SDS011;28498;54.400;18.566;2023-11-22T02:14:21;25.67;;;12.10;;
42364;SDS011;28498;54.400;18.566;2023-11-22T02:16:49;24.08;;;11.15;;
42364;SDS011;28498;54.400;18.566;2023-11-22T02:19:17;25.10;;;10.90;;
42364;SDS011;28498;54.400;18.566;2023-11-22T02:21:44;22.40;;;10.07;;
42364;SDS011;28498;54.400;18.566;2023-11-22T02:24:11;17.80;;;9.77;;
42364;SDS011;28498;54.400;18.566;2023-11-22T02:26:43;27.70;;;10.85;;
42364;SDS011;28498;54.400;18.566;2023-11-22T02:29:13;22.83;;;10.70;;
42364;SDS011;28498;54.400;18.566;2023-11-22T02:31:41;22.92;;;9.93;;
42364;SDS011;28498;54.400;18.566;2023-11-22T02:34:12;23.23;;;9.70;;
42364;SDS011;28498;54.400;18.566;2023-11-22T02:36:39;18.50;;;8.98;;
42364;SDS011;28498;54.400;18.566;2023-11-22T02:39:16;23.55;;;9.48;;
42364;SDS011;28498;54.400;18.566;2023-11-22T02:41:43;17.05;;;8.40;;
42364;SDS011;28498;54.400;18.566;2023-11-22T02:44:11;24.05;;;9.57;;
42364;SDS011;28498;54.400;18.566;2023-11-22T02:46:42;24.17;;;9.77;;
42364;SDS011;28498;54.400;18.566;2023-11-22T02:49:09;22.55;;;8.77;;
42364;SDS011;28498;54.400;18.566;2023-11-22T02:51:36;23.50;;;9.80;;
42364;SDS011;28498;54.400;18.566;2023-11-22T02:54:03;20.90;;;8.50;;
42364;SDS011;28498;54.400;18.566;2023-11-22T02:56:32;16.58;;;8.48;;
42364;SDS011;28498;54.400;18.566;2023-11-22T02:58:59;25.85;;;8.90;;
42364;SDS011;28498;54.400;18.566;2023-11-22T03:01:26;20.77;;;8.98;;
42364;SDS011;28498;54.400;18.566;2023-11-22T03:03:53;21.42;;;8.25;;
42364;SDS011;28498;54.400;18.566;2023-11-22T03:06:20;17.95;;;7.75;;
42364;SDS011;28498;54.400;18.566;2023-11-22T03:08:47;19.33;;;8.98;;
42364;SDS011;28498;54.400;18.566;2023-11-22T03:11:15;18.58;;;7.70;;
42364;SDS011;28498;54.400;18.566;2023-11-22T03:13:42;22.90;;;8.70;;
42364;SDS011;28498;54.400;18.566;2023-11-22T03:16:10;17.85;;;8.65;;
42364;SDS011;28498;54.400;18.566;2023-11-22T03:18:37;21.73;;;8.48;;
42364;SDS011;28498;54.400;18.566;2023-11-22T03:21:05;19.85;;;8.30;;
42364;SDS011;28498;54.400;18.566;2023-11-22T03:23:32;16.98;;;7.25;;
42364;SDS011;28498;54.400;18.566;2023-11-22T03:25:59;16.83;;;8.70;;
42364;SDS011;28498;54.400;18.566;2023-11-22T03:28:26;19.77;;;7.82;;
42364;SDS011;28498;54.400;18.566;2023-11-22T03:30:57;15.65;;;8.27;;
42364;SDS011;28498;54.400;18.566;2023-11-22T03:33:25;21.45;;;7.80;;
42364;SDS011;28498;54.400;18.566;2023-11-22T03:35:53;16.02;;;7.68;;
42364;SDS011;28498;54.400;18.566;2023-11-22T03:38:19;17.60;;;8.13;;
42364;SDS011;28498;54.400;18.566;2023-11-22T03:40:47;16.88;;;7.18;;
42364;SDS011;28498;54.400;18.566;2023-11-22T03:43:15;16.33;;;8.48;;
42364;SDS011;28498;54.400;18.566;2023-11-22T03:45:42;16.35;;;6.95;;
42364;SDS011;28498;54.400;18.566;2023-11-22T03:48:09;21.73;;;7.07;;
42364;SDS011;28498;54.400;18.566;2023-11-22T03:50:36;15.77;;;6.38;;
42364;SDS011;28498;54.400;18.566;2023-11-22T03:53:03;14.82;;;6.28;;
42364;SDS011;28498;54.400;18.566;2023-11-22T03:55:30;15.43;;;6.00;;
42364;SDS011;28498;54.400;18.566;2023-11-22T03:57:57;15.50;;;6.45;;
42364;SDS011;28498;54.400;18.566;2023-11-22T04:00:24;14.70;;;5.97;;
42364;SDS011;28498;54.400;18.566;2023-11-22T04:02:51;12.73;;;6.90;;
42364;SDS011;28498;54.400;18.566;2023-11-22T04:05:18;13.52;;;6.38;;
42364;SDS011;28498;54.400;18.566;2023-11-22T04:07:46;14.40;;;5.95;;
42364;SDS011;28498;54.400;18.566;2023-11-22T04:10:13;12.77;;;5.90;;
42364;SDS011;28498;54.400;18.566;2023-11-22T04:12:41;13.80;;;6.53;;
42364;SDS011;28498;54.400;18.566;2023-11-22T04:15:08;15.45;;;5.70;;
42364;SDS011;28498;54.400;18.566;2023-11-22T04:17:37;11.18;;;5.70;;
42364;SDS011;28498;54.400;18.566;2023-11-22T04:20:05;11.90;;;5.28;;
42364;SDS011;28498;54.400;18.566;2023-11-22T04:22:37;14.70;;;6.82;;
42364;SDS011;28498;54.400;18.566;2023-11-22T04:25:04;10.68;;;5.65;;
42364;SDS011;28498;54.400;18.566;2023-11-22T04:27:32;14.35;;;5.72;;
42364;SDS011;28498;54.400;18.566;2023-11-22T04:30:01;14.07;;;6.03;;
42364;SDS011;28498;54.400;18.566;2023-11-22T04:32:28;11.60;;;5.10;;
42364;SDS011;28498;54.400;18.566;2023-11-22T04:34:55;9.82;;;4.95;;
42364;SDS011;28498;54.400;18.566;2023-11-22T04:37:22;11.10;;;4.78;;
42364;SDS011;28498;54.400;18.566;2023-11-22T04:39:53;11.02;;;4.43;;
42364;SDS011;28498;54.400;18.566;2023-11-22T04:42:20;12.23;;;5.50;;
42364;SDS011;28498;54.400;18.566;2023-11-22T04:44:49;9.23;;;5.05;;
42364;SDS011;28498;54.400;18.566;2023-11-22T04:47:16;10.57;;;4.90;;
42364;SDS011;28498;54.400;18.566;2023-11-22T04:49:43;9.95;;;5.25;;
42364;SDS011;28498;54.400;18.566;2023-11-22T04:52:10;11.32;;;5.10;;
42364;SDS011;28498;54.400;18.566;2023-11-22T04:54:38;13.45;;;5.50;;
42364;SDS011;28498;54.400;18.566;2023-11-22T04:57:05;10.48;;;4.97;;
42364;SDS011;28498;54.400;18.566;2023-11-22T04:59:32;10.88;;;4.90;;
42364;SDS011;28498;54.400;18.566;2023-11-22T05:01:59;5.95;;;3.40;;
42364;SDS011;28498;54.400;18.566;2023-11-22T05:04:27;10.23;;;4.70;;
42364;SDS011;28498;54.400;18.566;2023-11-22T05:06:54;8.40;;;4.15;;
42364;SDS011;28498;54.400;18.566;2023-11-22T05:09:21;11.10;;;5.55;;
42364;SDS011;28498;54.400;18.566;2023-11-22T05:11:48;9.20;;;4.18;;
42364;SDS011;28498;54.400;18.566;2023-11-22T05:14:15;11.27;;;5.25;;
42364;SDS011;28498;54.400;18.566;2023-11-22T05:16:42;10.75;;;4.63;;
42364;SDS011;28498;54.400;18.566;2023-11-22T05:19:09;7.80;;;4.68;;
42364;SDS011;28498;54.400;18.566;2023-11-22T05:21:36;12.02;;;5.28;;
42364;SDS011;28498;54.400;18.566;2023-11-22T05:24:03;8.80;;;4.65;;
42364;SDS011;28498;54.400;18.566;2023-11-22T05:26:30;10.40;;;4.38;;
42364;SDS011;28498;54.400;18.566;2023-11-22T05:28:58;8.93;;;4.53;;
42364;SDS011;28498;54.400;18.566;2023-11-22T05:31:25;8.60;;;4.05;;
42364;SDS011;28498;54.400;18.566;2023-11-22T05:33:52;11.50;;;5.22;;
42364;SDS011;28498;54.400;18.566;2023-11-22T05:36:19;10.50;;;4.53;;
42364;SDS011;28498;54.400;18.566;2023-11-22T05:38:46;9.80;;;4.93;;
42364;SDS011;28498;54.400;18.566;2023-11-22T05:41:13;10.07;;;4.38;;
42364;SDS011;28498;54.400;18.566;2023-11-22T05:43:40;12.15;;;5.32;;
42364;SDS011;28498;54.400;18.566;2023-11-22T05:46:09;10.25;;;4.78;;
42364;SDS011;28498;54.400;18.566;2023-11-22T05:48:36;10.68;;;4.70;;
42364;SDS011;28498;54.400;18.566;2023-11-22T05:51:03;10.32;;;4.50;;
42364;SDS011;28498;54.400;18.566;2023-11-22T05:53:30;13.23;;;5.90;;
42364;SDS011;28498;54.400;18.566;2023-11-22T05:55:57;10.32;;;4.60;;
42364;SDS011;28498;54.400;18.566;2023-11-22T05:58:26;8.82;;;5.05;;
42364;SDS011;28498;54.400;18.566;2023-11-22T06:00:53;11.88;;;5.07;;
42364;SDS011;28498;54.400;18.566;2023-11-22T06:03:20;10.20;;;5.20;;
42364;SDS011;28498;54.400;18.566;2023-11-22T06:05:47;12.20;;;5.00;;
42364;SDS011;28498;54.400;18.566;2023-11-22T06:08:14;11.82;;;4.82;;
42364;SDS011;28498;54.400;18.566;2023-11-22T06:10:41;15.23;;;5.10;;
42364;SDS011;28498;54.400;18.566;2023-11-22T06:13:09;7.57;;;4.03;;
42364;SDS011;28498;54.400;18.566;2023-11-22T06:15:37;10.35;;;5.00;;
42364;SDS011;28498;54.400;18.566;2023-11-22T06:18:04;12.93;;;5.55;;
42364;SDS011;28498;54.400;18.566;2023-11-22T06:20:31;12.48;;;5.82;;
42364;SDS011;28498;54.400;18.566;2023-11-22T06:23:07;10.00;;;4.60;;
42364;SDS011;28498;54.400;18.566;2023-11-22T06:25:34;13.05;;;5.90;;
42364;SDS011;28498;54.400;18.566;2023-11-22T06:28:06;9.27;;;4.93;;
42364;SDS011;28498;54.400;18.566;2023-11-22T06:30:33;12.43;;;4.90;;
42364;SDS011;28498;54.400;18.566;2023-11-22T06:33:01;11.25;;;4.85;;
42364;SDS011;28498;54.400;18.566;2023-11-22T06:35:28;8.43;;;4.18;;
42364;SDS011;28498;54.400;18.566;2023-11-22T06:37:55;13.43;;;6.13;;
42364;SDS011;28498;54.400;18.566;2023-11-22T06:40:22;11.25;;;4.50;;
42364;SDS011;28498;54.400;18.566;2023-11-22T06:42:49;10.95;;;4.53;;
42364;SDS011;28498;54.400;18.566;2023-11-22T06:45:16;12.13;;;5.00;;
42364;SDS011;28498;54.400;18.566;2023-11-22T06:47:43;11.80;;;5.57;;
42364;SDS011;28498;54.400;18.566;2023-11-22T06:50:11;15.07;;;5.85;;
42364;SDS011;28498;54.400;18.566;2023-11-22T06:52:39;15.00;;;6.88;;
42364;SDS011;28498;54.400;18.566;2023-11-22T06:55:07;12.98;;;5.70;;
42364;SDS011;28498;54.400;18.566;2023-11-22T06:57:35;11.75;;;5.55;;
42364;SDS011;28498;54.400;18.566;2023-11-22T07:00:04;10.65;;;4.80;;
42364;SDS011;28498;54.400;18.566;2023-11-22T07:02:32;9.77;;;4.75;;
42364;SDS011;28498;54.400;18.566;2023-11-22T07:04:59;10.13;;;5.18;;
42364;SDS011;28498;54.400;18.566;2023-11-22T07:07:26;10.27;;;4.95;;
42364;SDS011;28498;54.400;18.566;2023-11-22T07:09:53;14.98;;;5.47;;
42364;SDS011;28498;54.400;18.566;2023-11-22T07:12:25;11.30;;;5.03;;
42364;SDS011;28498;54.400;18.566;2023-11-22T07:14:53;12.20;;;5.28;;
42364;SDS011;28498;54.400;18.566;2023-11-22T07:17:20;10.93;;;4.70;;
42364;SDS011;28498;54.400;18.566;2023-11-22T07:19:49;11.98;;;5.55;;
42364;SDS011;28498;54.400;18.566;2023-11-22T07:22:18;11.65;;;5.40;;
42364;SDS011;28498;54.400;18.566;2023-11-22T07:24:46;13.80;;;6.32;;
42364;SDS011;28498;54.400;18.566;2023-11-22T07:27:21;11.57;;;5.82;;
42364;SDS011;28498;54.400;18.566;2023-11-22T07:29:48;10.88;;;5.70;;
42364;SDS011;28498;54.400;18.566;2023-11-22T07:32:18;9.75;;;5.45;;
42364;SDS011;28498;54.400;18.566;2023-11-22T07:34:49;11.52;;;5.43;;
42364;SDS011;28498;54.400;18.566;2023-11-22T07:37:19;16.30;;;6.40;;
42364;SDS011;28498;54.400;18.566;2023-11-22T07:39:47;9.85;;;4.80;;
42364;SDS011;28498;54.400;18.566;2023-11-22T07:42:16;13.02;;;5.90;;
42364;SDS011;28498;54.400;18.566;2023-11-22T07:44:44;9.95;;;4.72;;
42364;SDS011;28498;54.400;18.566;2023-11-22T07:47:12;9.38;;;4.72;;
42364;SDS011;28498;54.400;18.566;2023-11-22T07:49:40;10.80;;;4.63;;
42364;SDS011;28498;54.400;18.566;2023-11-22T07:52:08;11.70;;;5.38;;
42364;SDS011;28498;54.400;18.566;2023-11-22T07:54:40;8.82;;;4.70;;
42364;SDS011;28498;54.400;18.566;2023-11-22T07:57:07;10.70;;;4.32;;
42364;SDS011;28498;54.400;18.566;2023-11-22T07:59:34;10.35;;;4.68;;
42364;SDS011;28498;54.400;18.566;2023-11-22T08:02:03;12.20;;;4.22;;
42364;SDS011;28498;54.400;18.566;2023-11-22T08:04:37;12.65;;;4.68;;
42364;SDS011;28498;54.400;18.566;2023-11-22T08:07:04;11.20;;;5.68;;
42364;SDS011;28498;54.400;18.566;2023-11-22T08:09:31;10.38;;;4.18;;
42364;SDS011;28498;54.400;18.566;2023-11-22T08:11:59;10.02;;;4.53;;
42364;SDS011;28498;54.400;18.566;2023-11-22T08:14:31;14.32;;;5.95;;
42364;SDS011;28498;54.400;18.566;2023-11-22T08:16:59;12.30;;;5.28;;
42364;SDS011;28498;54.400;18.566;2023-11-22T08:19:26;13.50;;;5.97;;
42364;SDS011;28498;54.400;18.566;2023-11-22T08:21:54;12.93;;;5.80;;
42364;SDS011;28498;54.400;18.566;2023-11-22T08:24:21;10.00;;;4.82;;
42364;SDS011;28498;54.400;18.566;2023-11-22T08:26:48;12.27;;;5.32;;
42364;SDS011;28498;54.400;18.566;2023-11-22T08:29:15;14.18;;;6.07;;
42364;SDS011;28498;54.400;18.566;2023-11-22T08:31:42;12.85;;;5.75;;
42364;SDS011;28498;54.400;18.566;2023-11-22T08:34:09;13.30;;;6.05;;
42364;SDS011;28498;54.400;18.566;2023-11-22T08:36:37;14.63;;;6.20;;
42364;SDS011;28498;54.400;18.566;2023-11-22T08:39:05;14.40;;;6.32;;
42364;SDS011;28498;54.400;18.566;2023-11-22T08:41:32;14.48;;;6.85;;
42364;SDS011;28498;54.400;18.566;2023-11-22T08:44:00;16.02;;;6.70;;
42364;SDS011;28498;54.400;18.566;2023-11-22T08:46:27;19.20;;;7.03;;
42364;SDS011;28498;54.400;18.566;2023-11-22T08:48:54;16.08;;;6.75;;
42364;SDS011;28498;54.400;18.566;2023-11-22T08:51:23;13.93;;;6.30;;
42364;SDS011;28498;54.400;18.566;2023-11-22T08:53:50;13.35;;;6.68;;
42364;SDS011;28498;54.400;18.566;2023-11-22T08:56:17;15.18;;;7.05;;
42364;SDS011;28498;54.400;18.566;2023-11-22T08:58:45;13.02;;;6.30;;
42364;SDS011;28498;54.400;18.566;2023-11-22T09:01:12;12.75;;;6.88;;
42364;SDS011;28498;54.400;18.566;2023-11-22T09:03:41;19.23;;;7.47;;
42364;SDS011;28498;54.400;18.566;2023-11-22T09:06:10;18.02;;;6.05;;
42364;SDS011;28498;54.400;18.566;2023-11-22T09:08:37;14.93;;;6.38;;
42364;SDS011;28498;54.400;18.566;2023-11-22T09:11:04;13.75;;;7.10;;
42364;SDS011;28498;54.400;18.566;2023-11-22T09:13:33;15.88;;;7.15;;
42364;SDS011;28498;54.400;18.566;2023-11-22T09:16:01;14.80;;;7.75;;
42364;SDS011;28498;54.400;18.566;2023-11-22T09:18:32;16.17;;;7.13;;
42364;SDS011;28498;54.400;18.566;2023-11-22T09:20:59;14.75;;;6.90;;
42364;SDS011;28498;54.400;18.566;2023-11-22T09:23:26;13.65;;;6.22;;
42364;SDS011;28498;54.400;18.566;2023-11-22T09:25:53;13.50;;;6.35;;
42364;SDS011;28498;54.400;18.566;2023-11-22T09:28:20;14.68;;;6.60;;
42364;SDS011;28498;54.400;18.566;2023-11-22T09:30:48;14.52;;;6.50;;
42364;SDS011;28498;54.400;18.566;2023-11-22T09:33:16;11.38;;;6.28;;
42364;SDS011;28498;54.400;18.566;2023-11-22T09:35:44;15.45;;;7.50;;
42364;SDS011;28498;54.400;18.566;2023-11-22T09:38:13;12.32;;;6.88;;
42364;SDS011;28498;54.400;18.566;2023-11-22T09:40:42;11.25;;;6.32;;
42364;SDS011;28498;54.400;18.566;2023-11-22T09:43:14;16.00;;;6.82;;
42364;SDS011;28498;54.400;18.566;2023-11-22T09:45:48;14.15;;;6.97;;
42364;SDS011;28498;54.400;18.566;2023-11-22T09:48:22;13.82;;;6.00;;
42364;SDS011;28498;54.400;18.566;2023-11-22T09:50:59;15.43;;;7.47;;
42364;SDS011;28498;54.400;18.566;2023-11-22T09:53:31;12.63;;;6.22;;
42364;SDS011;28498;54.400;18.566;2023-11-22T09:56:23;15.23;;;6.85;;
42364;SDS011;28498;54.400;18.566;2023-11-22T09:58:52;11.43;;;5.70;;
42364;SDS011;28498;54.400;18.566;2023-11-22T10:01:23;14.63;;;6.75;;
42364;SDS011;28498;54.400;18.566;2023-11-22T10:03:50;17.60;;;7.03;;
42364;SDS011;28498;54.400;18.566;2023-11-22T10:06:17;10.07;;;5.03;;
42364;SDS011;28498;54.400;18.566;2023-11-22T10:08:44;13.10;;;5.45;;
42364;SDS011;28498;54.400;18.566;2023-11-22T10:11:17;9.95;;;5.15;;
42364;SDS011;28498;54.400;18.566;2023-11-22T10:13:48;9.45;;;5.35;;
42364;SDS011;28498;54.400;18.566;2023-11-22T10:16:17;9.68;;;4.75;;
42364;SDS011;28498;54.400;18.566;2023-11-22T10:18:46;9.60;;;4.75;;
42364;SDS011;28498;54.400;18.566;2023-11-22T10:23:55;10.05;;;5.15;;
42364;SDS011;28498;54.400;18.566;2023-11-22T10:26:23;7.45;;;4.53;;
42364;SDS011;28498;54.400;18.566;2023-11-22T10:28:52;10.88;;;4.88;;
42364;SDS011;28498;54.400;18.566;2023-11-22T10:31:20;8.20;;;3.60;;
42364;SDS011;28498;54.400;18.566;2023-11-22T10:33:49;9.73;;;4.68;;
42364;SDS011;28498;54.400;18.566;2023-11-22T10:36:17;7.65;;;4.53;;
42364;SDS011;28498;54.400;18.566;2023-11-22T10:38:48;7.25;;;3.60;;
42364;SDS011;28498;54.400;18.566;2023-11-22T10:41:15;7.05;;;3.45;;
42364;SDS011;28498;54.400;18.566;2023-11-22T10:43:42;7.75;;;4.10;;
42364;SDS011;28498;54.400;18.566;2023-11-22T10:46:12;9.98;;;3.75;;
42364;SDS011;28498;54.400;18.566;2023-11-22T10:48:40;8.50;;;5.32;;
42364;SDS011;28498;54.400;18.566;2023-11-22T10:51:08;8.32;;;4.38;;
42364;SDS011;28498;54.400;18.566;2023-11-22T10:53:42;8.35;;;3.40;;
42364;SDS011;28498;54.400;18.566;2023-11-22T10:56:16;7.07;;;3.63;;
42364;SDS011;28498;54.400;18.566;2023-11-22T10:58:51;9.43;;;4.28;;
42364;SDS011;28498;54.400;18.566;2023-11-22T11:01:26;9.55;;;4.22;;
42364;SDS011;28498;54.400;18.566;2023-11-22T11:03:56;8.73;;;4.53;;
42364;SDS011;28498;54.400;18.566;2023-11-22T11:06:36;8.10;;;4.03;;
42364;SDS011;28498;54.400;18.566;2023-11-22T11:09:04;9.95;;;3.45;;
42364;SDS011;28498;54.400;18.566;2023-11-22T11:11:33;7.35;;;4.03;;
42364;SDS011;28498;54.400;18.566;2023-11-22T11:14:02;6.75;;;3.40;;
42364;SDS011;28498;54.400;18.566;2023-11-22T11:16:30;6.05;;;2.83;;
42364;SDS011;28498;54.400;18.566;2023-11-22T11:19:04;7.03;;;3.35;;
42364;SDS011;28498;54.400;18.566;2023-11-22T11:21:33;4.72;;;2.40;;
42364;SDS011;28498;54.400;18.566;2023-11-22T11:24:01;8.48;;;2.53;;
42364;SDS011;28498;54.400;18.566;2023-11-22T11:26:33;4.93;;;2.75;;
42364;SDS011;28498;54.400;18.566;2023-11-22T11:29:04;6.60;;;2.85;;
42364;SDS011;28498;54.400;18.566;2023-11-22T11:31:33;7.95;;;3.03;;
42364;SDS011;28498;54.400;18.566;2023-11-22T11:34:06;8.43;;;3.30;;
42364;SDS011;28498;54.400;18.566;2023-11-22T11:36:36;7.63;;;3.38;;
42364;SDS011;28498;54.400;18.566;2023-11-22T11:39:05;7.50;;;3.42;;
42364;SDS011;28498;54.400;18.566;2023-11-22T11:41:37;8.00;;;3.72;;
42364;SDS011;28498;54.400;18.566;2023-11-22T11:44:09;8.13;;;3.70;;
42364;SDS011;28498;54.400;18.566;2023-11-22T11:46:38;8.00;;;3.63;;
42364;SDS011;28498;54.400;18.566;2023-11-22T11:49:07;10.25;;;3.80;;
42364;SDS011;28498;54.400;18.566;2023-11-22T11:51:35;8.70;;;3.45;;
42364;SDS011;28498;54.400;18.566;2023-11-22T11:54:04;8.10;;;3.72;;
42364;SDS011;28498;54.400;18.566;2023-11-22T11:56:33;8.60;;;3.90;;
42364;SDS011;28498;54.400;18.566;2023-11-22T11:59:00;9.20;;;3.70;;
42364;SDS011;28498;54.400;18.566;2023-11-22T12:01:28;8.18;;;3.83;;
42364;SDS011;28498;54.400;18.566;2023-11-22T12:03:56;7.95;;;4.18;;
42364;SDS011;28498;54.400;18.566;2023-11-22T12:06:24;8.63;;;3.95;;
42364;SDS011;28498;54.400;18.566;2023-11-22T12:08:51;7.20;;;3.42;;
42364;SDS011;28498;54.400;18.566;2023-11-22T12:11:19;8.65;;;3.53;;
42364;SDS011;28498;54.400;18.566;2023-11-22T12:13:46;8.52;;;3.65;;
42364;SDS011;28498;54.400;18.566;2023-11-22T12:16:15;10.85;;;5.82;;
42364;SDS011;28498;54.400;18.566;2023-11-22T12:18:45;10.20;;;5.35;;
42364;SDS011;28498;54.400;18.566;2023-11-22T12:21:17;15.30;;;6.97;;
42364;SDS011;28498;54.400;18.566;2023-11-22T12:23:45;15.10;;;7.45;;
42364;SDS011;28498;54.400;18.566;2023-11-22T12:26:16;18.88;;;8.32;;
42364;SDS011;28498;54.400;18.566;2023-11-22T12:28:45;18.90;;;8.98;;
42364;SDS011;28498;54.400;18.566;2023-11-22T12:31:28;20.52;;;8.45;;
42364;SDS011;28498;54.400;18.566;2023-11-22T12:33:57;18.40;;;8.27;;
42364;SDS011;28498;54.400;18.566;2023-11-22T12:36:25;17.02;;;8.13;;
42364;SDS011;28498;54.400;18.566;2023-11-22T12:38:54;16.77;;;8.15;;
42364;SDS011;28498;54.400;18.566;2023-11-22T12:41:26;16.23;;;8.35;;
42364;SDS011;28498;54.400;18.566;2023-11-22T12:44:05;17.52;;;7.75;;
42364;SDS011;28498;54.400;18.566;2023-11-22T12:46:44;23.15;;;9.32;;
42364;SDS011;28498;54.400;18.566;2023-11-22T12:49:26;17.42;;;9.15;;
42364;SDS011;28498;54.400;18.566;2023-11-22T12:51:54;18.02;;;8.05;;
42364;SDS011;28498;54.400;18.566;2023-11-22T12:54:26;16.83;;;8.20;;
42364;SDS011;28498;54.400;18.566;2023-11-22T12:56:53;16.40;;;7.57;;
42364;SDS011;28498;54.400;18.566;2023-11-22T12:59:25;15.25;;;7.55;;
42364;SDS011;28498;54.400;18.566;2023-11-22T13:01:54;15.05;;;7.68;;
42364;SDS011;28498;54.400;18.566;2023-11-22T13:04:22;16.60;;;7.97;;
42364;SDS011;28498;54.400;18.566;2023-11-22T13:06:49;17.50;;;7.55;;
42364;SDS011;28498;54.400;18.566;2023-11-22T13:09:17;16.58;;;8.13;;
42364;SDS011;28498;54.400;18.566;2023-11-22T13:11:44;16.05;;;8.02;;
42364;SDS011;28498;54.400;18.566;2023-11-22T13:14:12;16.02;;;8.05;;
42364;SDS011;28498;54.400;18.566;2023-11-22T13:16:43;14.20;;;7.63;;
42364;SDS011;28498;54.400;18.566;2023-11-22T13:19:11;15.55;;;7.50;;
42364;SDS011;28498;54.400;18.566;2023-11-22T13:21:38;19.05;;;8.50;;
42364;SDS011;28498;54.400;18.566;2023-11-22T13:24:07;15.02;;;8.13;;
42364;SDS011;28498;54.400;18.566;2023-11-22T13:26:36;17.33;;;9.23;;
42364;SDS011;28498;54.400;18.566;2023-11-22T13:29:03;15.98;;;7.88;;
42364;SDS011;28498;54.400;18.566;2023-11-22T13:31:30;17.20;;;8.40;;
42364;SDS011;28498;54.400;18.566;2023-11-22T13:33:57;16.83;;;8.40;;
42364;SDS011;28498;54.400;18.566;2023-11-22T13:36:24;16.45;;;8.15;;
42364;SDS011;28498;54.400;18.566;2023-11-22T13:38:51;17.10;;;8.13;;
42364;SDS011;28498;54.400;18.566;2023-11-22T13:41:18;20.75;;;8.05;;
42364;SDS011;28498;54.400;18.566;2023-11-22T13:43:46;20.80;;;8.50;;
42364;SDS011;28498;54.400;18.566;2023-11-22T13:46:15;20.13;;;8.15;;
42364;SDS011;28498;54.400;18.566;2023-11-22T13:48:43;19.38;;;7.85;;
42364;SDS011;28498;54.400;18.566;2023-11-22T13:51:10;16.83;;;8.65;;
42364;SDS011;28498;54.400;18.566;2023-11-22T13:53:38;14.38;;;8.73;;
42364;SDS011;28498;54.400;18.566;2023-11-22T13:56:10;17.05;;;9.05;;
42364;SDS011;28498;54.400;18.566;2023-11-22T13:58:40;20.08;;;9.07;;
42364;SDS011;28498;54.400;18.566;2023-11-22T14:01:08;15.45;;;8.02;;
42364;SDS011;28498;54.400;18.566;2023-11-22T14:03:41;18.75;;;8.60;;
42364;SDS011;28498;54.400;18.566;2023-11-22T14:06:09;20.45;;;9.43;;
42364;SDS011;28498;54.400;18.566;2023-11-22T14:08:37;21.58;;;9.13;;
42364;SDS011;28498;54.400;18.566;2023-11-22T14:11:05;18.20;;;8.32;;
42364;SDS011;28498;54.400;18.566;2023-11-22T14:13:32;15.30;;;8.02;;
42364;SDS011;28498;54.400;18.566;2023-11-22T14:15:59;16.30;;;8.48;;
42364;SDS011;28498;54.400;18.566;2023-11-22T14:18:27;17.92;;;8.75;;
42364;SDS011;28498;54.400;18.566;2023-11-22T14:20:54;19.35;;;9.18;;
42364;SDS011;28498;54.400;18.566;2023-11-22T14:23:22;17.17;;;8.25;;
42364;SDS011;28498;54.400;18.566;2023-11-22T14:25:50;22.15;;;10.15;;
42364;SDS011;28498;54.400;18.566;2023-11-22T14:28:17;20.63;;;9.43;;
42364;SDS011;28498;54.400;18.566;2023-11-22T14:30:45;17.77;;;8.43;;
42364;SDS011;28498;54.400;18.566;2023-11-22T14:33:12;19.38;;;9.27;;